Main page
METAR-TAF:

METAR-TAF

Airports :

Saint-Brieuc – Armor Airport

Saint-Brieuc, France

latitude: 48-32N, longitude: 002-51W, elevation: 138 m

Current weather observation

The report was made 13 minutes ago, at 09:30 UTC
Wind 7 kt from the West/Northwest, varying between West and North/Northwest
Temperature 13°C
Humidity 88%
Pressure 1010 hPa
Visibility 10 km or more
Broken clouds at a height of 1300 ft
Overcast at a height of 2000 ft

METAR: LFRT 190930Z AUTO 30007KT 280V340 9999 BKN013 OVC020 13/11 Q1010

Time: 11:43 (09:43 UTC)


TAF: missing

Weather observations and forecasts of more than 4000 airports (METAR and TAF reports).

The available stations are represented by yellow and red dots on the map.

Hover mouse over dot to see the name of the station.

Then click to see weather observations and forecasts.

To change the map : click on the green buttons with a black cross to zoom in, on the green button with a dash to zoom out, or on the green arrows for adjacent maps.


METAR-TAF: